Time;durP1;ratioP1;P1;durP2;ratioP2;P2;SDS_P1;SDS_P2;PMS_P1;PMS_P2;Temp;Humidity;BMP_temperature;BMP_pressure;BME280_temperature;BME280_humidity;BME280_pressure;Samples;Min_cycle;Max_cycle;Signal;HPM_P1;HPM_P2
2022/12/21 00:00:38;;;;;;;0.72;0.72;;;;;;;22.70;35.68;99366.05;1892878;75;28126;-46
2022/12/21 00:03:26;;;;;;;0.78;0.78;;;;;;;22.68;35.70;99387.37;1877842;75;28228;-43
2022/12/21 00:06:15;;;;;;;0.88;0.80;;;;;;;22.66;35.71;99362.14;1881197;75;28149;-45
2022/12/21 00:09:06;;;;;;;1.10;0.80;;;;;;;22.64;35.79;99364.25;1873899;75;28194;-46
2022/12/21 00:11:54;;;;;;;1.40;0.70;;;;;;;22.66;35.76;99369.79;1891384;75;31063;-45
2022/12/21 00:14:43;;;;;;;1.92;0.80;;;;;;;22.68;35.75;99367.64;1901549;75;28149;-45
2022/12/21 00:17:32;;;;;;;0.90;0.90;;;;;;;22.68;35.70;99366.84;1901289;75;28071;-45
2022/12/21 00:20:24;;;;;;;0.80;0.80;;;;;;;22.68;35.71;99353.95;1879681;75;28063;-43
2022/12/21 00:23:13;;;;;;;0.75;0.75;;;;;;;22.69;35.69;99375.33;1901397;75;28161;-44
2022/12/21 00:26:04;;;;;;;0.75;0.75;;;;;;;22.68;35.72;99365.47;1868694;76;28190;-43
2022/12/21 00:28:54;;;;;;;0.90;0.80;;;;;;;22.69;35.72;99359.73;1900442;75;28149;-45
2022/12/21 00:31:43;;;;;;;1.30;0.85;;;;;;;22.67;35.69;99360.52;1901349;75;28068;-43
2022/12/21 00:34:33;;;;;;;1.52;0.90;;;;;;;22.68;35.75;99366.27;1901494;75;28241;-48
2022/12/21 00:37:21;;;;;;;0.90;0.90;;;;;;;22.67;35.74;99342.72;1868795;76;28156;-46
2022/12/21 00:40:11;;;;;;;2.17;0.90;;;;;;;22.68;35.73;99353.14;1877133;75;37114;-46
2022/12/21 00:42:58;;;;;;;1.20;0.80;;;;;;;22.69;35.69;99351.52;1877304;75;28070;-45
2022/12/21 00:45:47;;;;;;;1.70;0.90;;;;;;;22.68;35.75;99350.41;1887422;75;28127;-45
2022/12/21 00:48:36;;;;;;;0.90;0.90;;;;;;;22.69;35.76;99347.42;1868891;76;28223;-45
2022/12/21 00:51:30;;;;;;;0.80;0.80;;;;;;;22.67;35.72;99344.62;1891016;75;28083;-46
2022/12/21 00:54:18;;;;;;;0.80;0.80;;;;;;;22.69;35.72;99349.31;1878235;75;28060;-44
2022/12/21 00:57:07;;;;;;;0.80;0.80;;;;;;;22.65;36.09;99341.29;1875268;75;28655;-47
2022/12/21 00:59:59;;;;;;;0.90;0.90;;;;;;;22.65;36.09;99341.29;1856847;77;28143;-45
2022/12/21 01:02:54;;;;;;;0.98;0.70;;;;;;;22.62;35.82;99337.13;1886175;75;28100;-48
2022/12/21 01:05:47;;;;;;;1.62;0.90;;;;;;;22.65;35.75;99345.39;1879379;75;28102;-45
2022/12/21 01:08:36;;;;;;;0.90;0.90;;;;;;;22.65;35.80;99330.34;1879922;75;28338;-43
2022/12/21 01:11:28;;;;;;;0.90;0.90;;;;;;;22.67;35.78;99337.77;1868649;76;28226;-45
2022/12/21 01:14:16;;;;;;;0.95;0.95;;;;;;;22.66;35.76;99336.94;1879721;75;28122;-46
2022/12/21 01:17:05;;;;;;;2.10;0.90;;;;;;;22.68;35.73;99346.30;1901335;75;28217;-44
2022/12/21 01:19:53;;;;;;;1.17;0.95;;;;;;;22.65;35.75;99334.45;1868367;75;28212;-45
2022/12/21 01:22:42;;;;;;;1.52;1.02;;;;;;;22.68;35.77;99346.30;1868531;76;28192;-43
2022/12/21 01:25:32;;;;;;;0.72;0.72;;;;;;;22.69;35.75;99347.95;1866024;75;28147;-45
2022/12/21 01:28:20;;;;;;;1.35;0.90;;;;;;;22.70;35.72;99357.84;1876110;75;28157;-44
2022/12/21 01:31:09;;;;;;;0.93;0.93;;;;;;;22.68;35.69;99340.83;1888301;75;28129;-46
2022/12/21 01:33:57;;;;;;;0.95;0.85;;;;;;;22.67;35.71;99335.88;1875825;75;28168;-45
2022/12/21 01:36:46;;;;;;;0.90;0.90;;;;;;;22.67;35.77;99331.77;1864674;75;28632;-43
2022/12/21 01:39:35;;;;;;;1.10;1.00;;;;;;;22.68;35.80;99332.61;1899567;75;28137;-44
2022/12/21 01:42:27;;;;;;;1.00;1.00;;;;;;;22.68;35.75;99333.98;1887452;75;28082;-45
2022/12/21 01:45:22;;;;;;;0.85;0.85;;;;;;;22.68;35.74;99340.83;1882135;75;28155;-43
2022/12/21 01:48:17;;;;;;;0.90;0.80;;;;;;;22.69;35.70;99323.30;1892293;75;28177;-45
2022/12/21 01:51:07;;;;;;;0.98;0.85;;;;;;;22.68;35.77;99322.46;1890636;75;32190;-44
2022/12/21 01:54:02;;;;;;;0.85;0.85;;;;;;;22.69;35.75;99333.73;1890259;75;28096;-45
2022/12/21 01:56:54;;;;;;;0.88;0.88;;;;;;;22.68;35.72;99339.45;1868694;76;28141;-42
2022/12/21 01:59:46;;;;;;;1.10;1.00;;;;;;;22.66;35.81;99321.06;1881011;75;28135;-48
2022/12/21 02:02:37;;;;;;;0.80;0.80;;;;;;;22.65;35.79;99323.49;1874774;75;28218;-45
2022/12/21 02:05:47;;;;;;;1.10;0.90;;;;;;;22.64;35.79;99334.97;1901322;75;28177;-43
2022/12/21 02:08:40;;;;;;;0.73;0.73;;;;;;;22.66;35.80;99316.96;1878149;75;28221;-44
2022/12/21 02:11:29;;;;;;;0.90;0.90;;;;;;;22.65;35.78;99310.64;1868909;76;28145;-45
2022/12/21 02:14:18;;;;;;;0.90;0.90;;;;;;;22.66;35.82;99322.44;1890606;75;28108;-45
2022/12/21 02:17:13;;;;;;;0.90;0.90;;;;;;;22.64;35.77;99316.34;1884566;75;28146;-43
2022/12/21 02:20:38;;;;;;;0.95;0.95;;;;;;;22.66;35.80;99321.06;1867987;75;28242;-43
2022/12/21 02:23:47;;;;;;;0.80;0.80;;;;;;;22.66;35.75;99321.06;1897915;75;28250;-44
2022/12/21 02:26:59;;;;;;;0.80;0.80;;;;;;;22.61;35.87;99336.81;1864624;75;28294;-47
2022/12/21 02:30:00;;;;;;;0.90;0.90;;;;;;;22.61;35.89;99338.17;1901393;75;28162;-45
2022/12/21 02:33:08;;;;;;;1.10;1.00;;;;;;;22.61;35.90;99340.91;1881488;75;28163;-45
2022/12/21 02:36:30;;;;;;;0.90;0.90;;;;;;;22.59;35.88;99327.17;1868684;76;28108;-44
2022/12/21 02:39:39;;;;;;;1.02;1.02;;;;;;;22.58;35.94;99328.22;1836920;77;28293;-44
2022/12/21 02:45:52;;;;;;;0.80;0.80;;;;;;;22.48;35.98;99312.92;1868700;76;28218;-45
2022/12/21 02:48:52;;;;;;;0.72;0.72;;;;;;;22.56;36.01;99323.53;1883683;75;28139;-46
2022/12/21 02:51:47;;;;;;;0.80;0.80;;;;;;;22.55;35.99;99335.00;1869194;76;28261;-44
2022/12/21 02:54:41;;;;;;;0.80;0.80;;;;;;;22.56;36.02;99332.58;1897848;75;28106;-47
2022/12/21 02:57:33;;;;;;;1.00;1.00;;;;;;;22.56;36.02;99320.27;1899153;75;28063;-47
2022/12/21 03:00:22;;;;;;;0.80;0.80;;;;;;;22.57;35.98;99323.28;1887769;75;28145;-45
2022/12/21 03:03:51;;;;;;;0.80;0.80;;;;;;;22.58;36.00;99328.22;1869243;76;28096;-45
2022/12/21 03:07:10;;;;;;;1.05;0.98;;;;;;;22.59;35.99;99335.38;1869273;76;32113;-43
2022/12/21 03:10:14;;;;;;;1.07;1.02;;;;;;;22.58;35.99;99341.91;1868969;76;28128;-45
2022/12/21 03:13:37;;;;;;;1.47;1.00;;;;;;;22.57;36.03;99336.13;1876673;75;28161;-44
2022/12/21 03:16:47;;;;;;;1.00;1.00;;;;;;;22.56;36.01;99340.80;1869285;76;28138;-43
2022/12/21 03:20:00;;;;;;;1.12;1.00;;;;;;;22.55;36.06;99316.38;1885913;75;28092;-47
2022/12/21 03:23:12;;;;;;;0.90;0.90;;;;;;;22.53;36.09;99300.20;1853003;75;28168;-44
2022/12/21 03:26:28;;;;;;;1.00;1.00;;;;;;;22.53;36.09;99310.31;1885538;75;28048;-44
2022/12/21 03:29:18;;;;;;;1.20;1.10;;;;;;;22.50;36.08;99318.45;1901482;75;28138;-44
2022/12/21 03:32:16;;;;;;;1.00;1.00;;;;;;;22.54;36.13;99304.58;1880422;75;28600;-46
2022/12/21 03:35:07;;;;;;;1.27;1.17;;;;;;;22.54;36.05;99317.47;1894146;75;28232;-47
2022/12/21 03:37:58;;;;;;;0.90;0.90;;;;;;;22.55;36.06;99329.53;1890674;75;28273;-44
2022/12/21 03:40:49;;;;;;;0.98;0.88;;;;;;;22.57;36.08;99300.01;1887911;75;38418;-43
2022/12/21 03:43:38;;;;;;;1.00;1.00;;;;;;;22.61;36.01;99301.78;1888173;75;28207;-44
2022/12/21 03:46:32;;;;;;;0.90;0.90;;;;;;;22.56;36.02;99302.99;1891074;75;28239;-44
2022/12/21 03:49:25;;;;;;;1.10;1.10;;;;;;;22.58;36.04;99292.64;1893680;75;28070;-44
2022/12/21 03:52:16;;;;;;;0.90;0.90;;;;;;;22.56;36.05;99309.84;1881824;75;28256;-44
2022/12/21 03:55:17;;;;;;;1.00;1.00;;;;;;;22.53;36.14;99315.25;1869233;76;28147;-47
2022/12/21 03:58:07;;;;;;;0.98;0.98;;;;;;;22.57;36.07;99289.59;1880113;75;28119;-45
2022/12/21 04:01:18;;;;;;;0.80;0.80;;;;;;;22.57;36.06;99297.80;1895817;75;28199;-44
2022/12/21 04:04:26;;;;;;;1.10;1.10;;;;;;;22.57;36.05;99280.01;1846574;75;28107;-45
2022/12/21 04:07:18;;;;;;;1.92;1.07;;;;;;;22.55;36.06;99295.31;1897947;75;28118;-44
2022/12/21 04:10:18;;;;;;;1.00;1.00;;;;;;;22.57;36.10;99304.64;1869109;76;28265;-45
2022/12/21 04:13:06;;;;;;;1.30;1.20;;;;;;;22.61;36.01;99294.94;1885616;75;28173;-44
2022/12/21 04:16:04;;;;;;;1.00;1.00;;;;;;;22.57;36.03;99283.58;1869102;76;38857;-45
2022/12/21 04:21:59;;;;;;;1.15;1.05;;;;;;;22.57;36.04;99279.48;1901203;75;28807;-45
2022/12/21 04:28:09;;;;;;;0.88;0.88;;;;;;;22.56;36.10;99282.47;1869327;76;28211;-47
2022/12/21 04:30:59;;;;;;;1.00;1.00;;;;;;;22.53;36.18;99299.36;1885425;75;28159;-44
2022/12/21 04:33:51;;;;;;;0.90;0.90;;;;;;;22.50;36.21;99303.93;1868857;76;28242;-45
2022/12/21 04:39:46;;;;;;;1.00;1.00;;;;;;;22.53;36.20;99270.62;1901440;75;28212;-44
2022/12/21 04:42:35;;;;;;;0.80;0.80;;;;;;;22.51;36.26;99266.77;1880932;75;28283;-44
2022/12/21 04:45:23;;;;;;;1.10;1.00;;;;;;;22.54;36.25;99284.61;1869041;76;28577;-47
2022/12/21 04:48:11;;;;;;;1.10;1.10;;;;;;;22.57;36.21;99282.74;1878430;75;28206;-46
2022/12/21 04:51:15;;;;;;;1.12;1.10;;;;;;;22.59;36.20;99295.69;1879531;75;28189;-44
2022/12/21 04:54:04;;;;;;;1.05;1.05;;;;;;;22.58;36.17;99306.33;1879415;75;28191;-44
2022/12/21 04:56:52;;;;;;;0.88;0.88;;;;;;;22.58;36.15;99290.73;1884741;75;28185;-45
2022/12/21 04:59:40;;;;;;;0.80;0.80;;;;;;;22.59;36.19;99288.84;1869180;76;28136;-44
2022/12/21 05:02:29;;;;;;;1.07;1.07;;;;;;;22.57;36.16;99297.27;1890692;75;28194;-45
2022/12/21 05:05:16;;;;;;;0.82;0.82;;;;;;;;;;1870812;75;28281;-44
2022/12/21 05:08:05;;;;;;;0.97;0.97;;;;;;;22.65;36.08;99283.27;1869118;76;28457;-44
2022/12/21 05:10:53;;;;;;;1.02;1.02;;;;;;;22.64;36.08;99274.74;1890813;75;28188;-44
2022/12/21 05:13:43;;;;;;;1.00;0.90;;;;;;;22.63;36.06;99285.41;1890694;75;28163;-46
2022/12/21 05:16:31;;;;;;;1.02;0.98;;;;;;;22.64;36.04;99262.42;1884283;75;28072;-45
2022/12/21 05:19:28;;;;;;;0.98;0.98;;;;;;;22.61;36.10;99268.37;1868981;76;28209;-46
2022/12/21 05:22:17;;;;;;;1.20;1.00;;;;;;;22.64;36.07;99276.11;1877272;75;28235;-45
2022/12/21 05:25:07;;;;;;;1.00;1.00;;;;;;;22.63;36.08;99279.94;1898311;75;28084;-45
2022/12/21 05:27:56;;;;;;;1.50;1.00;;;;;;;22.66;36.01;99284.91;1887678;75;28060;-45
2022/12/21 05:30:44;;;;;;;1.50;0.97;;;;;;;22.67;36.03;99280.28;1895454;75;28220;-44
2022/12/21 05:33:33;;;;;;;1.00;1.00;;;;;;;22.70;35.95;99290.76;1901463;75;28199;-43
2022/12/21 05:36:21;;;;;;;1.00;1.00;;;;;;;22.73;35.91;99293.55;1900268;75;28123;-46
2022/12/21 05:39:10;;;;;;;1.10;1.10;;;;;;;22.71;35.93;99289.66;1886030;75;37355;-44
2022/12/21 05:41:58;;;;;;;0.80;0.80;;;;;;;22.73;35.91;99279.33;1869086;76;28213;-44
2022/12/21 05:44:46;;;;;;;0.90;0.90;;;;;;;22.74;35.89;99296.04;1895742;75;28228;-43
2022/12/21 05:47:35;;;;;;;0.93;0.93;;;;;;;22.74;35.87;99289.72;1901377;75;28219;-48
2022/12/21 05:50:24;;;;;;;1.05;1.05;;;;;;;22.74;35.89;99278.24;1886524;75;28166;-43
2022/12/21 05:53:14;;;;;;;0.80;0.80;;;;;;;22.74;35.89;99284.25;1868896;75;28209;-44
2022/12/21 05:56:03;;;;;;;1.60;1.10;;;;;;;22.74;35.91;99278.77;1889071;75;28043;-45
2022/12/21 05:58:53;;;;;;;1.35;1.00;;;;;;;22.74;35.89;99286.98;1886966;75;28200;-45
2022/12/21 06:01:55;;;;;;;1.00;1.00;;;;;;;22.75;35.90;99283.19;1883555;75;28672;-46
2022/12/21 06:04:50;;;;;;;1.00;1.00;;;;;;;22.75;35.89;99284.56;1867252;76;28170;-49
2022/12/21 06:07:39;;;;;;;1.10;1.00;;;;;;;22.73;35.92;99300.40;1893569;75;28146;-44
2022/12/21 06:10:27;;;;;;;1.10;1.10;;;;;;;22.75;35.89;99305.09;1889868;75;28161;-44
2022/12/21 06:13:19;;;;;;;1.22;1.12;;;;;;;22.74;35.91;99302.89;1901174;75;28223;-44
2022/12/21 06:16:12;;;;;;;1.80;0.80;;;;;;;22.76;35.94;99306.21;1867938;75;28192;-43
2022/12/21 06:19:00;;;;;;;1.02;1.02;;;;;;;22.74;35.99;99314.37;1876268;75;28223;-44
2022/12/21 06:21:51;;;;;;;1.12;1.07;;;;;;;22.73;36.02;99310.83;1898566;75;28150;-46
2022/12/21 06:24:40;;;;;;;1.00;1.00;;;;;;;22.76;35.98;99314.42;1898624;75;28221;-45
2022/12/21 06:27:29;;;;;;;1.60;1.12;;;;;;;22.78;35.86;99319.12;1867317;76;28165;-47
2022/12/21 06:30:18;;;;;;;1.10;1.10;;;;;;;22.78;35.82;99319.12;1889043;75;28245;-44
2022/12/21 06:33:06;;;;;;;1.05;1.05;;;;;;;22.83;35.72;99318.41;1876225;75;30096;-43
2022/12/21 06:35:56;;;;;;;1.20;1.10;;;;;;;22.84;35.64;99321.45;1884900;75;28074;-44
2022/12/21 06:38:45;;;;;;;1.02;1.00;;;;;;;22.85;35.50;99334.09;1867168;76;28372;-45
2022/12/21 06:41:33;;;;;;;1.32;1.22;;;;;;;22.84;35.52;99339.25;1888882;75;28634;-45
2022/12/21 06:44:21;;;;;;;1.00;1.00;;;;;;;22.85;35.45;99344.48;1888764;75;28203;-45
2022/12/21 06:47:13;;;;;;;1.45;1.30;;;;;;;22.85;35.39;99351.89;1884142;75;28642;-44
2022/12/21 06:50:09;;;;;;;1.20;1.20;;;;;;;22.83;35.36;99352.11;1878560;75;28126;-43
2022/12/21 06:53:06;;;;;;;1.00;1.00;;;;;;;22.86;35.34;99357.11;1890465;75;28349;-46
2022/12/21 06:56:03;;;;;;;1.17;1.17;;;;;;;22.86;35.30;99361.75;1889672;75;28173;-43
2022/12/21 06:58:54;;;;;;;1.57;1.47;;;;;;;22.86;35.29;99373.55;1898519;75;28152;-47
2022/12/21 07:01:42;;;;;;;1.70;1.47;;;;;;;22.86;35.18;99376.28;1887647;75;28022;-45
2022/12/21 07:04:33;;;;;;;1.42;1.32;;;;;;;22.88;35.06;99376.87;1885900;75;28131;-44
2022/12/21 07:07:21;;;;;;;1.40;1.40;;;;;;;22.94;35.04;99382.75;1892664;75;28369;-44
2022/12/21 07:10:13;;;;;;;1.70;1.20;;;;;;;22.96;35.12;99375.16;1885798;75;28141;-44
2022/12/21 07:13:01;;;;;;;1.22;1.17;;;;;;;22.98;35.10;99373.53;1884384;75;28231;-47
2022/12/21 07:15:51;;;;;;;1.77;1.60;;;;;;;22.99;35.02;99376.02;1888950;75;28252;-46
2022/12/21 07:18:40;;;;;;;2.95;1.10;;;;;;;23.04;35.00;99389.00;1888718;75;28110;-43
2022/12/21 07:21:28;;;;;;;1.37;1.00;;;;;;;23.04;35.00;99391.74;1888006;75;31149;-43
2022/12/21 07:24:21;;;;;;;1.35;1.27;;;;;;;23.02;34.97;99393.89;1867443;76;28176;-45
2022/12/21 07:27:09;;;;;;;1.30;1.20;;;;;;;23.00;34.90;99385.92;1888815;75;28117;-46
2022/12/21 07:29:57;;;;;;;1.03;1.03;;;;;;;22.98;34.92;99371.64;1889093;75;28119;-43
2022/12/21 07:32:45;;;;;;;2.40;1.30;;;;;;;22.99;34.98;99382.88;1886944;75;28160;-44
2022/12/21 07:35:34;;;;;;;1.47;1.37;;;;;;;23.01;35.04;99386.20;1867263;76;28193;-43
2022/12/21 07:38:24;;;;;;;1.30;1.20;;;;;;;23.02;35.14;99390.63;1888752;75;28191;-42
2022/12/21 07:41:15;;;;;;;1.40;1.32;;;;;;;22.99;35.36;99388.88;1889186;75;28141;-43
2022/12/21 07:44:04;;;;;;;1.47;1.22;;;;;;;23.00;35.35;99385.92;1886520;75;38435;-43
2022/12/21 07:47:13;;;;;;;2.10;1.10;;;;;;;22.99;35.32;99388.35;1865695;76;28336;-43
2022/12/21 07:50:03;;;;;;;1.70;1.00;;;;;;;22.97;35.31;99387.77;1866506;76;28178;-42
2022/12/21 07:52:53;;;;;;;1.32;1.22;;;;;;;23.01;35.35;99388.94;1894922;75;28151;-42
2022/12/21 07:55:41;;;;;;;1.33;1.30;;;;;;;23.02;35.29;99397.47;1879023;75;28159;-45
2022/12/21 07:58:30;;;;;;;1.80;1.20;;;;;;;23.04;35.28;99399.95;1882121;75;28196;-45
2022/12/21 08:01:19;;;;;;;1.10;1.00;;;;;;;23.05;35.30;99415.34;1867376;76;28183;-42
2022/12/21 08:04:08;;;;;;;1.42;1.32;;;;;;;23.05;35.28;99417.55;1889196;75;28216;-44
2022/12/21 08:06:56;;;;;;;1.00;1.00;;;;;;;23.05;35.30;99417.55;1888802;75;28366;-41
2022/12/21 08:09:45;;;;;;;1.80;1.30;;;;;;;23.06;35.34;99417.83;1867346;76;28141;-46
2022/12/21 08:12:34;;;;;;;3.25;1.15;;;;;;;23.08;35.28;99420.34;1897124;75;28246;-45
2022/12/21 08:15:23;;;;;;;1.20;1.10;;;;;;;23.07;35.28;99423.62;1898415;75;28143;-47
2022/12/21 08:18:11;;;;;;;1.17;1.10;;;;;;;23.10;35.29;99428.63;1880601;75;28181;-43
2022/12/21 08:21:00;;;;;;;2.17;1.10;;;;;;;23.11;35.29;99430.28;1881541;75;28597;-42
2022/12/21 08:23:49;;;;;;;1.10;1.07;;;;;;;23.07;35.34;99423.62;1878889;75;28434;-44
2022/12/21 08:26:38;;;;;;;1.20;1.20;;;;;;;23.10;35.38;99428.63;1878899;75;28150;-42
2022/12/21 08:29:26;;;;;;;1.40;1.30;;;;;;;23.07;35.37;99427.73;1881693;75;28213;-44
2022/12/21 08:32:15;;;;;;;2.10;1.30;;;;;;;23.11;35.35;99426.17;1867254;76;28208;-42
2022/12/21 08:35:10;;;;;;;1.32;1.20;;;;;;;23.12;35.29;99436.06;1896303;75;28652;-42
2022/12/21 08:37:59;;;;;;;1.47;1.10;;;;;;;23.06;35.42;99438.38;1874555;75;28288;-49
2022/12/21 08:40:47;;;;;;;1.37;1.20;;;;;;;23.08;35.36;99445.81;1881472;75;28137;-46
2022/12/21 08:43:37;;;;;;;1.12;1.12;;;;;;;23.09;35.38;99450.23;1867216;76;28219;-42
2022/12/21 08:46:26;;;;;;;1.30;1.20;;;;;;;23.08;35.43;99445.01;1888863;75;28166;-42
2022/12/21 08:49:15;;;;;;;1.30;1.20;;;;;;;23.08;35.46;99454.59;1889006;75;28102;-42
2022/12/21 08:52:05;;;;;;;1.10;1.10;;;;;;;23.08;35.42;99447.19;1885100;75;28244;-42
2022/12/21 08:54:57;;;;;;;1.00;1.00;;;;;;;23.10;35.39;99458.77;1878555;75;28134;-43
2022/12/21 08:57:48;;;;;;;1.17;1.17;;;;;;;23.09;35.47;99457.09;1901059;75;28118;-45
2022/12/21 09:00:38;;;;;;;1.30;1.20;;;;;;;23.09;35.44;99460.36;1901255;75;28172;-44
2022/12/21 09:03:27;;;;;;;1.42;1.32;;;;;;;23.10;35.48;99459.30;1882817;75;38529;-44
2022/12/21 09:06:16;;;;;;;1.20;1.10;;;;;;;23.09;35.45;99459.83;1881794;75;28185;-42
2022/12/21 09:09:12;;;;;;;1.20;1.20;;;;;;;23.14;35.39;99450.36;1872291;75;28300;-43
2022/12/21 09:12:01;;;;;;;1.27;1.25;;;;;;;23.10;35.43;99453.81;1854096;76;28262;-43
2022/12/21 09:14:50;;;;;;;1.50;1.30;;;;;;;23.11;35.49;99460.95;1883764;75;28186;-43
2022/12/21 09:17:38;;;;;;;1.30;1.20;;;;;;;23.10;35.47;99464.78;1869008;76;28140;-44
2022/12/21 09:20:27;;;;;;;1.25;1.10;;;;;;;23.10;35.48;99462.88;1896937;75;28209;-42
2022/12/21 09:23:15;;;;;;;1.57;1.20;;;;;;;23.11;35.48;99473.28;1901598;75;30046;-43
2022/12/21 09:26:07;;;;;;;1.32;1.10;;;;;;;23.09;35.50;99469.95;1884693;75;28226;-46
2022/12/21 09:28:56;;;;;;;1.37;1.30;;;;;;;23.11;35.49;99471.38;1880822;75;28152;-42
2022/12/21 09:31:45;;;;;;;1.22;1.12;;;;;;;23.11;35.50;99472.75;1875276;75;28090;-42
2022/12/21 09:34:33;;;;;;;1.30;1.20;;;;;;;23.13;35.52;99465.13;1879129;75;38549;-42
2022/12/21 09:37:22;;;;;;;1.45;1.05;;;;;;;23.16;35.51;99464.65;1885008;75;28161;-44
2022/12/21 09:40:13;;;;;;;2.35;1.20;;;;;;;23.15;35.44;99461.59;1879731;75;28185;-43
2022/12/21 09:43:25;;;;;;;1.22;1.20;;;;;;;23.10;35.49;99462.88;1879596;75;28184;-45
2022/12/21 09:46:19;;;;;;;1.27;1.10;;;;;;;23.11;35.50;99476.02;1896382;75;28189;-45
2022/12/21 09:49:19;;;;;;;1.17;1.17;;;;;;;23.09;35.57;99476.27;1890376;75;28167;-43
2022/12/21 09:52:12;;;;;;;1.40;1.30;;;;;;;23.08;35.63;99466.92;1868899;76;28168;-43
2022/12/21 09:55:18;;;;;;;1.05;1.00;;;;;;;23.07;35.62;99463.34;1869024;76;28215;-43
2022/12/21 09:58:10;;;;;;;1.63;1.30;;;;;;;23.09;35.62;99465.84;1880191;75;28147;-46
2022/12/21 10:01:02;;;;;;;1.12;1.12;;;;;;;23.06;35.63;99462.19;1878370;75;28096;-43
2022/12/21 10:03:55;;;;;;;1.00;0.90;;;;;;;23.09;35.60;99462.56;1878395;75;28212;-43
2022/12/21 10:07:11;;;;;;;1.20;1.10;;;;;;;23.09;35.60;99465.84;1898366;75;28113;-45
2022/12/21 10:10:38;;;;;;;1.10;1.10;;;;;;;23.12;35.57;99463.47;1877587;75;28299;-44
2022/12/21 10:13:39;;;;;;;0.90;0.90;;;;;;;23.07;35.62;99460.61;1898370;75;28238;-43
2022/12/21 10:16:43;;;;;;;1.22;1.22;;;;;;;23.08;35.67;99454.59;1882091;75;28109;-43
2022/12/21 10:19:53;;;;;;;1.80;1.20;;;;;;;23.07;35.65;99445.53;1875256;75;28244;-44
2022/12/21 10:22:46;;;;;;;1.25;1.15;;;;;;;23.03;35.71;99445.72;1867249;76;28207;-44
2022/12/21 10:25:43;;;;;;;1.27;1.20;;;;;;;23.06;35.71;99443.02;1896947;75;30174;-43
2022/12/21 10:28:56;;;;;;;1.17;1.07;;;;;;;23.09;35.66;99440.65;1898409;75;28203;-44
2022/12/21 10:31:47;;;;;;;1.17;1.17;;;;;;;23.07;35.65;99445.53;1874723;75;28130;-46
2022/12/21 10:34:43;;;;;;;1.33;1.23;;;;;;;23.08;35.66;99447.75;1888165;75;28081;-42
2022/12/21 10:37:27;;;;;;;1.15;1.12;;;;;;;23.11;35.58;99450.83;1867569;76;28449;-45
2022/12/21 10:40:16;;;;;;;1.20;1.10;;;;;;;23.08;35.60;99449.92;1868916;76;28207;-43
2022/12/21 10:43:05;;;;;;;1.30;1.20;;;;;;;23.15;35.52;99442.98;1892674;75;28161;-47
2022/12/21 10:45:54;;;;;;;1.17;1.17;;;;;;;23.17;35.51;99439.45;1898312;75;28310;-41
2022/12/21 10:48:43;;;;;;;1.03;1.03;;;;;;;23.15;35.50;99432.02;1880875;75;28254;-42
2022/12/21 10:51:36;;;;;;;1.03;1.03;;;;;;;23.17;35.54;99428.50;1898360;75;28134;-42
2022/12/21 10:54:29;;;;;;;1.65;1.30;;;;;;;23.15;35.53;99426.54;1878304;75;28243;-46
2022/12/21 10:57:26;;;;;;;1.20;1.10;;;;;;;23.15;35.51;99430.09;1879023;75;28708;-42
2022/12/21 11:00:33;;;;;;;1.20;1.20;;;;;;;23.12;35.50;99426.48;1881346;75;28240;-43
2022/12/21 11:03:36;;;;;;;1.43;1.20;;;;;;;23.11;35.52;99426.17;1864777;75;28236;-43
2022/12/21 11:06:32;;;;;;;1.35;1.25;;;;;;;23.09;35.56;99425.58;1867477;76;28134;-43
2022/12/21 11:09:32;;;;;;;1.20;1.10;;;;;;;23.09;35.59;99426.95;1897891;75;28129;-43
2022/12/21 11:12:24;;;;;;;1.20;1.10;;;;;;;23.09;35.58;99431.06;1898427;75;28125;-43
2022/12/21 11:15:15;;;;;;;1.40;1.20;;;;;;;23.10;35.58;99431.90;1877540;75;28214;-45
2022/12/21 11:18:04;;;;;;;1.17;1.10;;;;;;;23.08;35.59;99430.75;1885819;75;28914;-43
2022/12/21 11:20:54;;;;;;;1.10;1.10;;;;;;;23.10;35.60;99430.53;1867422;76;28240;-44
2022/12/21 11:23:44;;;;;;;1.82;1.30;;;;;;;23.09;35.60;99432.95;1888876;75;28181;-42
2022/12/21 11:26:38;;;;;;;1.12;1.12;;;;;;;23.10;35.57;99416.30;1890337;75;28154;-41
2022/12/21 11:29:32;;;;;;;1.10;1.10;;;;;;;23.10;35.58;99410.82;1898593;75;28172;-45
2022/12/21 11:32:22;;;;;;;1.50;1.00;;;;;;;23.08;35.61;99413.50;1867371;76;28103;-42
2022/12/21 11:35:26;;;;;;;2.07;1.30;;;;;;;23.14;35.61;99408.41;1896146;75;28129;-46
2022/12/21 11:38:16;;;;;;;1.10;1.10;;;;;;;23.14;35.61;99408.41;1898585;75;28125;-43
2022/12/21 11:41:26;;;;;;;1.70;1.30;;;;;;;23.14;35.53;99403.78;1898543;75;28212;-43
2022/12/21 11:44:19;;;;;;;1.40;1.37;;;;;;;23.13;35.55;99395.25;1873989;75;28217;-42
2022/12/21 11:47:23;;;;;;;1.30;1.20;;;;;;;23.10;35.57;99394.91;1882412;75;28207;-43
2022/12/21 11:50:40;;;;;;;1.07;1.07;;;;;;;23.12;35.56;99396.34;1867290;76;28155;-47
2022/12/21 11:53:49;;;;;;;1.10;1.10;;;;;;;23.08;35.57;99397.87;1876677;75;28090;-42
2022/12/21 11:56:47;;;;;;;1.15;1.15;;;;;;;23.08;35.60;99400.61;1880086;75;28155;-43
2022/12/21 12:00:05;;;;;;;1.00;1.00;;;;;;;23.07;35.64;99396.75;1868146;75;28350;-43
2022/12/21 12:03:15;;;;;;;1.42;1.20;;;;;;;23.08;35.62;99390.21;1868690;76;28182;-44
2022/12/21 12:06:23;;;;;;;1.10;1.10;;;;;;;23.07;35.64;99390.74;1888567;75;28127;-44
2022/12/21 12:09:29;;;;;;;1.17;1.02;;;;;;;23.06;35.67;99386.85;1892915;75;28248;-43
2022/12/21 12:12:24;;;;;;;1.22;1.12;;;;;;;23.08;35.60;99384.73;1878414;75;28608;-45
2022/12/21 12:15:40;;;;;;;1.40;1.30;;;;;;;23.06;35.65;99384.95;1879586;75;28086;-42
2022/12/21 12:18:54;;;;;;;1.10;1.10;;;;;;;23.09;35.63;99391.86;1862987;75;28287;-43
2022/12/21 12:21:58;;;;;;;1.35;1.27;;;;;;;23.09;35.61;99381.73;1900698;75;28145;-43
2022/12/21 12:25:06;;;;;;;1.25;1.22;;;;;;;23.07;35.69;99388.00;1874173;75;28181;-44
2022/12/21 12:28:19;;;;;;;1.10;1.10;;;;;;;23.08;35.66;99386.91;1856878;77;32252;-43
2022/12/21 12:31:25;;;;;;;1.27;1.27;;;;;;;23.07;35.62;99372.93;1856926;77;28147;-43
2022/12/21 12:34:51;;;;;;;1.42;1.35;;;;;;;23.08;35.64;99371.03;1868540;76;28197;-46
2022/12/21 12:37:49;;;;;;;1.40;1.30;;;;;;;23.08;35.63;99364.18;1868642;76;28293;-42
2022/12/21 12:40:43;;;;;;;1.30;1.20;;;;;;;23.06;35.69;99365.77;1884369;75;28152;-43
2022/12/21 12:43:47;;;;;;;1.32;1.30;;;;;;;23.09;35.63;99357.61;1856862;77;28158;-43
2022/12/21 12:46:52;;;;;;;1.40;1.30;;;;;;;23.11;35.57;99352.19;1890574;75;28235;-45
2022/12/21 12:50:03;;;;;;;1.07;0.97;;;;;;;23.11;35.60;99354.09;1878612;75;28196;-42
2022/12/21 12:53:13;;;;;;;1.55;1.45;;;;;;;23.12;35.57;99355.23;1890518;75;28280;-43
2022/12/21 12:56:10;;;;;;;1.30;1.20;;;;;;;23.11;35.59;99356.30;1861096;75;28131;-44
2022/12/21 12:59:03;;;;;;;1.40;1.30;;;;;;;23.08;35.62;99351.30;1878703;75;28110;-44
2022/12/21 13:02:04;;;;;;;1.17;1.17;;;;;;;23.11;35.63;99344.50;1879393;75;28205;-43
2022/12/21 13:05:07;;;;;;;0.90;0.90;;;;;;;23.12;35.58;99338.80;1868879;76;28150;-42
2022/12/21 13:08:20;;;;;;;1.40;1.30;;;;;;;23.15;35.56;99336.92;1868947;76;28282;-42
2022/12/21 13:11:11;;;;;;;1.47;1.37;;;;;;;23.13;35.55;99330.86;1868901;76;28138;-43
2022/12/21 13:14:13;;;;;;;1.55;1.30;;;;;;;23.13;35.54;99326.74;1890610;75;28150;-42
2022/12/21 13:17:18;;;;;;;1.27;1.17;;;;;;;23.14;35.56;99321.58;1891129;75;28139;-46
2022/12/21 13:20:08;;;;;;;1.20;1.10;;;;;;;23.13;35.55;99317.16;1890257;75;28211;-43
2022/12/21 13:23:12;;;;;;;1.60;1.45;;;;;;;23.14;35.53;99307.03;1886805;75;28102;-43
2022/12/21 13:26:03;;;;;;;1.40;1.30;;;;;;;23.14;35.54;99310.61;1885700;75;28197;-42
2022/12/21 13:28:54;;;;;;;1.30;1.20;;;;;;;23.14;35.55;99315.25;1879130;75;28135;-42
2022/12/21 13:31:49;;;;;;;1.40;1.30;;;;;;;23.17;35.50;99310.14;1879736;75;31513;-42
2022/12/21 13:34:54;;;;;;;1.30;1.20;;;;;;;23.15;35.53;99305.97;1879442;75;28153;-43
2022/12/21 13:37:45;;;;;;;1.22;1.20;;;;;;;23.20;35.51;99304.15;1881746;75;28173;-44
2022/12/21 13:40:53;;;;;;;1.25;1.25;;;;;;;23.19;35.46;99300.30;1879872;75;28239;-43
2022/12/21 13:44:04;;;;;;;1.23;1.13;;;;;;;23.19;35.49;99303.88;1868944;76;28287;-45
2022/12/21 13:46:54;;;;;;;1.30;1.20;;;;;;;23.22;35.42;99303.92;1868869;76;28587;-43
2022/12/21 13:50:15;;;;;;;1.40;1.30;;;;;;;23.18;35.50;99307.67;1890459;75;28172;-45
2022/12/21 13:53:13;;;;;;;1.20;1.20;;;;;;;23.22;35.45;99303.36;1876319;75;28135;-44
2022/12/21 13:56:21;;;;;;;1.27;1.23;;;;;;;23.17;35.54;99298.34;1901179;75;28134;-46